createdAt,value
2023-05-02T00:00:56.376Z,97876.89
2023-05-02T00:03:24.534Z,97874.63
2023-05-02T00:05:52.528Z,97873.80
2023-05-02T00:08:20.397Z,97874.20
2023-05-02T00:10:48.316Z,97872.14
2023-05-02T00:13:16.197Z,97872.79
2023-05-02T00:15:44.134Z,97870.19
2023-05-02T00:18:12.263Z,97870.19
2023-05-02T00:20:42.206Z,97869.39
2023-05-02T00:23:12.333Z,97864.48
2023-05-02T00:25:46.682Z,97869.15
2023-05-02T00:28:14.550Z,97870.33
2023-05-02T00:30:46.579Z,97865.70
2023-05-02T00:33:16.056Z,97869.83
2023-05-02T00:35:44.117Z,97867.88
2023-05-02T00:38:12.181Z,97870.74
2023-05-02T00:40:48.308Z,97869.84
2023-05-02T00:43:16.786Z,97869.67
2023-05-02T00:45:46.499Z,97866.04
2023-05-02T00:48:14.887Z,97865.21
2023-05-02T00:50:43.597Z,97866.25
2023-05-02T00:53:11.563Z,97865.35
2023-05-02T00:55:39.688Z,97867.06
2023-05-02T00:58:16.931Z,97864.73
2023-05-02T01:01:14.068Z,97868.77
2023-05-02T01:03:55.693Z,97876.52
2023-05-02T01:06:47.411Z,97877.63
2023-05-02T01:09:24.569Z,97873.33
2023-05-02T01:12:09.861Z,97872.52
2023-05-02T01:14:54.041Z,97876.40
2023-05-02T01:17:28.780Z,97873.80
2023-05-02T01:20:00.938Z,97877.17
2023-05-02T01:22:30.459Z,97881.76
2023-05-02T01:25:21.016Z,97880.48
2023-05-02T01:27:52.177Z,97876.81
2023-05-02T01:30:22.706Z,97878.43
2023-05-02T01:32:54.408Z,97880.29
2023-05-02T01:35:23.773Z,97880.42
2023-05-02T01:37:53.446Z,97885.58
2023-05-02T01:40:22.942Z,97879.73
2023-05-02T01:42:53.402Z,97878.23
2023-05-02T01:45:23.621Z,97879.65
2023-05-02T01:47:52.394Z,97879.70
2023-05-02T01:50:24.709Z,97882.58
2023-05-02T01:52:54.815Z,97880.39
2023-05-02T01:55:24.478Z,97879.37
2023-05-02T01:57:54.649Z,97879.59
2023-05-02T02:00:24.114Z,97879.55
2023-05-02T02:02:55.175Z,97878.61
2023-05-02T02:05:24.846Z,97877.71
2023-05-02T02:07:52.820Z,97878.34
2023-05-02T02:10:22.661Z,97876.95
2023-05-02T02:12:53.588Z,97875.88
2023-05-02T02:15:29.205Z,97872.51
2023-05-02T02:18:01.513Z,97868.71
2023-05-02T02:20:30.523Z,97876.61
2023-05-02T02:23:01.125Z,97873.16
2023-05-02T02:25:30.020Z,97871.36
2023-05-02T02:27:58.445Z,97872.20
2023-05-02T02:30:26.478Z,97865.88
2023-05-02T02:32:54.399Z,97869.21
2023-05-02T02:35:23.725Z,97871.88
2023-05-02T02:38:23.676Z,97874.90
2023-05-02T02:41:12.424Z,97870.40
2023-05-02T02:43:55.095Z,97871.71
2023-05-02T02:46:29.091Z,97869.23
2023-05-02T02:49:40.472Z,97871.08
2023-05-02T02:52:28.121Z,97867.75
2023-05-02T02:55:34.432Z,97865.36
2023-05-02T02:58:15.080Z,97869.65
2023-05-02T03:00:43.644Z,97870.84
2023-05-02T03:03:14.362Z,97874.08
2023-05-02T03:05:44.627Z,97877.28
2023-05-02T03:08:13.920Z,97875.95
2023-05-02T03:10:42.289Z,97878.58
2023-05-02T03:13:11.161Z,97878.88
2023-05-02T03:16:06.769Z,97881.10
2023-05-02T03:18:34.779Z,97878.11
2023-05-02T03:21:02.755Z,97877.23
2023-05-02T03:23:31.307Z,97880.38
2023-05-02T03:25:59.880Z,97884.85
2023-05-02T03:28:28.329Z,97883.73
2023-05-02T03:30:56.322Z,97883.24
2023-05-02T03:33:27.367Z,97884.04
2023-05-02T03:35:55.315Z,97882.50
2023-05-02T03:38:23.804Z,97881.83
2023-05-02T03:40:52.590Z,97880.83
2023-05-02T03:43:20.610Z,97879.96
2023-05-02T03:45:49.177Z,97879.52
2023-05-02T03:48:17.668Z,97880.66
2023-05-02T03:50:45.837Z,97879.66
2023-05-02T03:53:13.816Z,97880.95
2023-05-02T03:55:45.960Z,97881.13
2023-05-02T03:58:16.966Z,97881.11
2023-05-02T04:00:45.398Z,97880.15
2023-05-02T04:03:13.636Z,97879.00
2023-05-02T04:05:43.837Z,97880.00
2023-05-02T04:08:13.596Z,97884.04
2023-05-02T04:10:42.482Z,97883.40
2023-05-02T04:13:11.782Z,97888.52
2023-05-02T04:15:45.780Z,97888.91
2023-05-02T04:18:15.839Z,97891.61
2023-05-02T04:20:45.418Z,97888.33
2023-05-02T04:23:16.250Z,97891.39
2023-05-02T04:25:54.656Z,97892.14
2023-05-02T04:28:25.775Z,97893.04
2023-05-02T04:30:54.736Z,97892.27
2023-05-02T04:33:24.760Z,97888.02
2023-05-02T04:35:53.500Z,97891.05
2023-05-02T04:38:23.299Z,97890.88
2023-05-02T04:40:55.273Z,97893.21
2023-05-02T04:43:30.941Z,97895.16
2023-05-02T04:46:02.354Z,97890.13
2023-05-02T04:48:34.376Z,97894.23
2023-05-02T04:51:02.445Z,97894.16
2023-05-02T04:53:31.736Z,97892.34
2023-05-02T04:55:59.815Z,97894.45
2023-05-02T04:58:28.274Z,97892.23
2023-05-02T05:01:03.295Z,97897.73
2023-05-02T05:03:33.411Z,97894.66
2023-05-02T05:06:02.759Z,97895.96
2023-05-02T05:08:31.386Z,97897.77
2023-05-02T05:11:00.511Z,97899.56
2023-05-02T05:13:29.071Z,97900.16
2023-05-02T05:15:57.039Z,97902.38
2023-05-02T05:18:29.000Z,97903.52
2023-05-02T05:20:57.184Z,97903.84
2023-05-02T05:23:25.095Z,97903.32
2023-05-02T05:25:53.129Z,97903.83
2023-05-02T05:28:21.214Z,97905.85
2023-05-02T05:30:49.178Z,97905.30
2023-05-02T05:33:21.258Z,97908.58
2023-05-02T05:35:49.973Z,97905.92
2023-05-02T05:38:17.897Z,97906.10
2023-05-02T05:40:50.067Z,97907.02
2023-05-02T05:43:18.274Z,97903.94
2023-05-02T05:45:46.262Z,97903.16
2023-05-02T05:48:14.169Z,97904.73
2023-05-02T05:50:45.693Z,97907.38
2023-05-02T05:53:14.988Z,97902.63
2023-05-02T05:55:44.348Z,97906.84
2023-05-02T05:58:12.554Z,97907.49
2023-05-02T06:00:42.495Z,97910.66
2023-05-02T06:03:10.491Z,97912.42
2023-05-02T06:05:39.659Z,97911.65
2023-05-02T06:08:09.041Z,97914.92
2023-05-02T06:10:37.014Z,97916.58
2023-05-02T06:13:05.782Z,97918.54
2023-05-02T06:15:37.280Z,97916.11
2023-05-02T06:18:07.158Z,97922.67
2023-05-02T06:20:37.351Z,97928.71
2023-05-02T06:23:05.286Z,97929.70
2023-05-02T06:25:34.058Z,97932.49
2023-05-02T06:28:02.048Z,97930.80
2023-05-02T06:30:29.951Z,97929.67
2023-05-02T06:32:57.909Z,97928.51
2023-05-02T06:35:25.840Z,97935.33
2023-05-02T06:37:53.727Z,97937.77
2023-05-02T06:40:21.560Z,97938.19
2023-05-02T06:42:49.461Z,97943.12
2023-05-02T06:45:17.394Z,97946.19
2023-05-02T06:47:45.487Z,97948.93
2023-05-02T06:50:13.513Z,97953.79
2023-05-02T06:52:41.472Z,97949.60
2023-05-02T06:55:09.522Z,97950.54
2023-05-02T06:57:37.539Z,97948.70
2023-05-02T07:00:06.396Z,97953.07
2023-05-02T07:02:34.372Z,97957.61
2023-05-02T07:05:02.496Z,97955.58
2023-05-02T07:07:30.423Z,97960.35
2023-05-02T07:09:58.531Z,97957.41
2023-05-02T07:12:26.994Z,97960.55
2023-05-02T07:14:54.919Z,97958.46
2023-05-02T07:17:23.772Z,97957.94
2023-05-02T07:19:51.914Z,97958.39
2023-05-02T07:22:21.114Z,97957.55
2023-05-02T07:24:49.377Z,97956.71
2023-05-02T07:27:17.273Z,97961.64
2023-05-02T07:29:45.188Z,97963.02
2023-05-02T07:32:13.177Z,97963.77
2023-05-02T07:34:41.222Z,97966.94
2023-05-02T07:37:09.138Z,97969.14
2023-05-02T07:39:36.990Z,97970.30
2023-05-02T07:42:05.036Z,97970.39
2023-05-02T07:44:33.838Z,97972.39
2023-05-02T07:47:02.942Z,97973.30
2023-05-02T07:49:31.624Z,97975.00
2023-05-02T07:51:59.556Z,97977.27
2023-05-02T07:54:27.838Z,97973.84
2023-05-02T07:56:58.399Z,97969.02
2023-05-02T07:59:26.342Z,97967.36
2023-05-02T08:01:54.229Z,97965.39
2023-05-02T08:04:22.192Z,97966.08
2023-05-02T08:06:50.458Z,97966.67
2023-05-02T08:09:18.654Z,97966.15
2023-05-02T08:11:46.915Z,97967.44
2023-05-02T08:14:16.357Z,97965.02
2023-05-02T08:16:46.227Z,97964.38
2023-05-02T08:19:15.914Z,97968.20
2023-05-02T08:21:43.906Z,97964.91
2023-05-02T08:24:11.887Z,97966.06
2023-05-02T08:26:39.777Z,97966.19
2023-05-02T08:29:07.789Z,97964.09
2023-05-02T08:31:36.141Z,97963.66
2023-05-02T08:34:05.971Z,97960.93
2023-05-02T08:36:34.025Z,97965.65
2023-05-02T08:39:01.991Z,97971.33
2023-05-02T08:41:31.344Z,97972.19
2023-05-02T08:43:59.953Z,97981.60
2023-05-02T08:46:29.150Z,97982.68
2023-05-02T08:48:59.291Z,97982.48
2023-05-02T08:51:29.417Z,97984.36
2023-05-02T08:53:58.898Z,97990.00
2023-05-02T08:56:26.945Z,97990.43
2023-05-02T08:58:54.848Z,97983.77
2023-05-02T09:01:24.399Z,97978.64
2023-05-02T09:03:52.798Z,97980.05
2023-05-02T09:06:22.885Z,97979.89
2023-05-02T09:08:54.706Z,97976.48
2023-05-02T09:11:22.653Z,97974.13
2023-05-02T09:13:52.366Z,97979.86
2023-05-02T09:16:25.554Z,97977.64
2023-05-02T09:18:55.891Z,97974.89
2023-05-02T09:21:40.240Z,97975.05
2023-05-02T09:24:16.343Z,97978.17
2023-05-02T09:27:01.179Z,97978.40
2023-05-02T09:29:36.249Z,97983.84
2023-05-02T09:32:06.296Z,97985.01
2023-05-02T09:34:34.531Z,97990.86
2023-05-02T09:37:05.584Z,97985.20
2023-05-02T09:39:33.535Z,97988.23
2023-05-02T09:42:02.830Z,97992.03
2023-05-02T09:44:38.286Z,97995.60
2023-05-02T09:47:08.843Z,97991.64
2023-05-02T09:49:47.085Z,97995.08
2023-05-02T09:52:24.028Z,98001.62
2023-05-02T09:54:52.900Z,97997.95
2023-05-02T09:57:21.008Z,98002.13
2023-05-02T10:00:09.139Z,98009.55
2023-05-02T10:02:41.722Z,98008.63
2023-05-02T10:05:11.180Z,98010.27
2023-05-02T10:07:39.703Z,98007.46
2023-05-02T10:10:10.529Z,98010.67
2023-05-02T10:12:39.578Z,98011.38
2023-05-02T10:15:10.004Z,98011.60
2023-05-02T10:17:48.199Z,98017.59
2023-05-02T10:20:23.482Z,98013.48
2023-05-02T10:22:53.283Z,98009.50
2023-05-02T10:25:21.446Z,98011.48
2023-05-02T10:27:49.422Z,98005.16
2023-05-02T10:30:17.855Z,98009.40
2023-05-02T10:32:49.401Z,98004.91
2023-05-02T10:35:18.065Z,98006.80
2023-05-02T10:37:47.658Z,98009.88
2023-05-02T10:40:16.339Z,98015.33
2023-05-02T10:42:47.553Z,98013.12
2023-05-02T10:45:35.976Z,98017.17
2023-05-02T10:48:34.149Z,98013.88
2023-05-02T10:51:02.153Z,98005.13
2023-05-02T10:53:37.579Z,98005.84
2023-05-02T10:56:11.260Z,98006.08
2023-05-02T10:58:39.484Z,98012.02
2023-05-02T11:01:29.022Z,98009.55
2023-05-02T11:03:58.113Z,98012.17
2023-05-02T11:06:28.024Z,98007.23
2023-05-02T11:09:15.179Z,98004.98
2023-05-02T11:11:47.032Z,98008.25
2023-05-02T11:14:26.659Z,98006.89
2023-05-02T11:16:57.660Z,98010.23
2023-05-02T11:19:29.016Z,98016.14
2023-05-02T11:22:20.993Z,98015.77
2023-05-02T11:24:50.249Z,98020.98
2023-05-02T11:27:30.590Z,98019.56
2023-05-02T11:29:58.699Z,98015.80
2023-05-02T11:32:49.872Z,98019.73
2023-05-02T11:35:20.873Z,98020.23
2023-05-02T11:37:56.132Z,98028.14
2023-05-02T11:40:26.164Z,98027.15
2023-05-02T11:42:55.040Z,98031.39
2023-05-02T11:45:33.443Z,98030.66
2023-05-02T11:48:01.557Z,98030.52
2023-05-02T11:50:30.506Z,98026.14
2023-05-02T11:52:58.759Z,98037.05
2023-05-02T11:55:27.406Z,98033.23
2023-05-02T11:57:55.901Z,98035.33
2023-05-02T12:00:28.664Z,98037.95
2023-05-02T12:02:56.994Z,98033.71
2023-05-02T12:05:32.818Z,98030.88
2023-05-02T12:08:01.952Z,98033.27
2023-05-02T12:10:37.840Z,98034.48
2023-05-02T12:13:06.795Z,98032.13
2023-05-02T12:15:36.554Z,98030.40
2023-05-02T12:18:04.784Z,98030.98
2023-05-02T12:20:32.863Z,98028.47
2023-05-02T12:23:00.909Z,98023.08
2023-05-02T12:25:29.061Z,98025.88
2023-05-02T12:28:03.702Z,98032.34
2023-05-02T12:30:33.139Z,98032.95
2023-05-02T12:33:02.275Z,98035.62
2023-05-02T12:35:31.782Z,98044.70
2023-05-02T12:38:10.657Z,98038.81
2023-05-02T12:40:40.158Z,98041.13
2023-05-02T12:43:10.767Z,98039.77
2023-05-02T12:45:38.734Z,98045.48
2023-05-02T12:48:18.822Z,98043.46
2023-05-02T12:50:46.864Z,98049.20
2023-05-02T12:53:14.805Z,98042.91
2023-05-02T12:55:43.074Z,98050.77
2023-05-02T12:58:14.970Z,98061.93
2023-05-02T13:00:44.808Z,98053.92
2023-05-02T13:03:13.698Z,98048.06
2023-05-02T13:05:41.628Z,98056.34
2023-05-02T13:08:09.514Z,98058.60
2023-05-02T13:10:37.530Z,98066.41
2023-05-02T13:13:05.656Z,98060.80
2023-05-02T13:15:33.571Z,98063.42
2023-05-02T13:18:01.585Z,98065.83
2023-05-02T13:20:29.655Z,98062.26
2023-05-02T13:22:57.829Z,98059.25
2023-05-02T13:25:27.038Z,98059.92
2023-05-02T13:27:54.958Z,98066.27
2023-05-02T13:30:22.914Z,98061.35
2023-05-02T13:32:50.900Z,98065.92
2023-05-02T13:35:18.745Z,98064.73
2023-05-02T13:37:46.785Z,98063.77
2023-05-02T13:40:14.786Z,98068.35
2023-05-02T13:42:42.700Z,98072.68
2023-05-02T13:45:11.189Z,98074.80
2023-05-02T13:47:40.158Z,98075.21
2023-05-02T13:50:09.579Z,98069.58
2023-05-02T13:52:37.431Z,98069.13
2023-05-02T13:55:06.130Z,98071.42
2023-05-02T13:57:39.822Z,98066.98
2023-05-02T14:00:09.862Z,98067.89
2023-05-02T14:02:39.241Z,98070.97
2023-05-02T14:05:08.337Z,98071.61
2023-05-02T14:07:36.197Z,98071.60
2023-05-02T14:10:04.758Z,98072.17
2023-05-02T14:12:33.458Z,98076.27
2023-05-02T14:15:01.418Z,98081.05
2023-05-02T14:17:29.370Z,98076.41
2023-05-02T14:19:57.313Z,98084.86
2023-05-02T14:22:25.316Z,98084.84
2023-05-02T14:24:53.225Z,98086.87
2023-05-02T14:27:21.787Z,98092.89
2023-05-02T14:29:49.657Z,98099.86
2023-05-02T14:32:17.789Z,98101.15
2023-05-02T14:34:45.693Z,98104.46
2023-05-02T14:37:13.557Z,98103.27
2023-05-02T14:39:42.648Z,98104.79
2023-05-02T14:42:10.603Z,98111.09
2023-05-02T14:44:38.587Z,98111.46
2023-05-02T14:47:06.527Z,98114.20
2023-05-02T14:49:34.598Z,98113.98
2023-05-02T14:52:03.124Z,98115.85
2023-05-02T14:54:31.419Z,98114.13
2023-05-02T14:57:00.018Z,98117.06
2023-05-02T14:59:29.304Z,98119.60
2023-05-02T15:01:57.558Z,98121.12
2023-05-02T15:04:27.263Z,98121.76
2023-05-02T15:06:56.707Z,98122.73
2023-05-02T15:09:27.833Z,98121.52
2023-05-02T15:11:56.783Z,98116.76
2023-05-02T15:14:24.797Z,98123.19
2023-05-02T15:16:52.754Z,98120.02
2023-05-02T15:19:25.252Z,98125.50
2023-05-02T15:21:57.700Z,98132.38
2023-05-02T15:24:26.199Z,98132.27
2023-05-02T15:26:54.390Z,98142.87
2023-05-02T15:29:22.489Z,98145.50
2023-05-02T15:31:50.507Z,98151.14
2023-05-02T15:34:18.492Z,98159.13
2023-05-02T15:36:46.357Z,98154.47
2023-05-02T15:39:14.279Z,98163.52
2023-05-02T15:41:42.299Z,98166.25
2023-05-02T15:44:10.282Z,98165.31
2023-05-02T15:46:39.555Z,98173.73
2023-05-02T15:49:07.696Z,98180.54
2023-05-02T15:51:35.650Z,98187.98
2023-05-02T15:54:04.219Z,98195.39
2023-05-02T15:56:32.432Z,98199.38
2023-05-02T15:59:00.423Z,98205.98
2023-05-02T16:01:28.511Z,98209.78
2023-05-02T16:03:56.785Z,98215.98
2023-05-02T16:06:24.912Z,98222.28
2023-05-02T16:08:52.862Z,98224.68
2023-05-02T16:11:21.138Z,98230.39
2023-05-02T16:13:49.061Z,98237.55
2023-05-02T16:16:17.059Z,98243.20
2023-05-02T16:18:44.980Z,98246.54
2023-05-02T16:21:12.930Z,98246.30
2023-05-02T16:23:41.215Z,98251.52
2023-05-02T16:26:10.281Z,98255.68
2023-05-02T16:28:38.244Z,98260.79
2023-05-02T16:31:08.041Z,98267.70
2023-05-02T16:33:35.980Z,98265.55
2023-05-02T16:36:05.192Z,98261.52
2023-05-02T16:38:33.156Z,98266.29
2023-05-02T16:41:05.146Z,98268.02
2023-05-02T16:43:33.488Z,98259.73
2023-05-02T16:46:06.099Z,98255.80
2023-05-02T16:48:34.817Z,98256.05
2023-05-02T16:51:04.343Z,98256.65
2023-05-02T16:53:32.620Z,98257.66
2023-05-02T16:56:00.619Z,98266.27
2023-05-02T16:58:29.336Z,98268.21
2023-05-02T17:01:00.394Z,98271.20
2023-05-02T17:03:29.668Z,98266.10
2023-05-02T17:06:02.156Z,98278.76
2023-05-02T17:08:30.617Z,98278.96
2023-05-02T17:10:59.026Z,98284.91
2023-05-02T17:13:27.032Z,98290.35
2023-05-02T17:15:55.153Z,98297.44
2023-05-02T17:18:24.214Z,98302.23
2023-05-02T17:20:53.425Z,98303.77
2023-05-02T17:23:22.126Z,98307.73
2023-05-02T17:25:51.717Z,98313.63
2023-05-02T17:28:20.277Z,98323.44
2023-05-02T17:30:48.621Z,98330.02
2023-05-02T17:33:16.702Z,98338.46
2023-05-02T17:35:44.710Z,98344.36
2023-05-02T17:38:12.576Z,98349.48
2023-05-02T17:40:40.532Z,98352.48
2023-05-02T17:43:08.533Z,98361.76
2023-05-02T17:45:36.502Z,98364.36
2023-05-02T17:48:04.477Z,98367.73
2023-05-02T17:50:40.321Z,98374.98
2023-05-02T17:53:08.439Z,98380.36
2023-05-02T17:55:37.520Z,98385.29
2023-05-02T17:58:05.445Z,98393.48
2023-05-02T18:00:33.749Z,98395.23
2023-05-02T18:03:02.697Z,98400.83
2023-05-02T18:05:30.916Z,98396.35
2023-05-02T18:07:58.934Z,98392.54
2023-05-02T18:10:27.549Z,98397.23
2023-05-02T18:12:55.468Z,98396.95
2023-05-02T18:15:23.524Z,98398.21
2023-05-02T18:17:51.898Z,98398.73
2023-05-02T18:20:19.875Z,98403.02
2023-05-02T18:22:47.756Z,98395.60
2023-05-02T18:25:15.724Z,98395.37
2023-05-02T18:27:44.469Z,98391.84
2023-05-02T18:30:12.469Z,98394.45
2023-05-02T18:32:40.391Z,98394.83
2023-05-02T18:35:10.614Z,98395.14
2023-05-02T18:37:38.661Z,98396.94
2023-05-02T18:40:08.592Z,98393.50
2023-05-02T18:42:36.608Z,98393.73
2023-05-02T18:45:05.615Z,98390.00
2023-05-02T18:47:33.888Z,98390.60
2023-05-02T18:50:03.141Z,98387.74
2023-05-02T18:52:31.259Z,98387.27
2023-05-02T18:54:59.858Z,98389.09
2023-05-02T18:57:28.056Z,98388.73
2023-05-02T18:59:56.973Z,98386.39
2023-05-02T19:02:25.002Z,98382.23
2023-05-02T19:04:52.969Z,98387.11
2023-05-02T19:07:20.833Z,98389.33
2023-05-02T19:09:48.749Z,98391.06
2023-05-02T19:12:16.652Z,98394.95
2023-05-02T19:14:44.955Z,98399.84
2023-05-02T19:17:12.819Z,98396.27
2023-05-02T19:19:41.826Z,98395.59
2023-05-02T19:22:09.848Z,98393.30
2023-05-02T19:24:37.786Z,98392.02
2023-05-02T19:27:07.865Z,98393.92
2023-05-02T19:29:35.869Z,98393.34
2023-05-02T19:32:03.937Z,98396.77
2023-05-02T19:34:31.943Z,98394.11
2023-05-02T19:36:59.802Z,98392.77
2023-05-02T19:39:28.529Z,98396.74
2023-05-02T19:41:56.573Z,98397.52
2023-05-02T19:44:24.543Z,98399.60
2023-05-02T19:46:52.452Z,98399.48
2023-05-02T19:49:20.951Z,98402.96
2023-05-02T19:51:49.399Z,98406.02
2023-05-02T19:54:17.334Z,98409.88
2023-05-02T19:56:46.766Z,98413.81
2023-05-02T19:59:15.242Z,98416.48
2023-05-02T20:01:43.590Z,98417.70
2023-05-02T20:04:11.813Z,98417.85
2023-05-02T20:06:39.887Z,98421.07
2023-05-02T20:09:07.844Z,98417.94
2023-05-02T20:11:35.820Z,98418.34
2023-05-02T20:14:03.880Z,98420.96
2023-05-02T20:16:32.475Z,98419.16
2023-05-02T20:19:00.589Z,98417.29
2023-05-02T20:21:28.626Z,98414.05
2023-05-02T20:23:56.518Z,98414.91
2023-05-02T20:26:24.404Z,98415.00
2023-05-02T20:28:52.353Z,98418.21
2023-05-02T20:31:20.281Z,98416.86
2023-05-02T20:33:48.218Z,98422.22
2023-05-02T20:36:18.142Z,98420.74
2023-05-02T20:38:48.070Z,98425.27
2023-05-02T20:41:15.937Z,98430.32
2023-05-02T20:43:47.375Z,98430.32
2023-05-02T20:46:19.277Z,98436.98
2023-05-02T20:48:47.784Z,98442.42
2023-05-02T20:51:16.170Z,98448.05
2023-05-02T20:53:44.837Z,98452.39
2023-05-02T20:56:12.853Z,98460.03
2023-05-02T20:58:40.985Z,98455.23
2023-05-02T21:01:08.948Z,98457.27
2023-05-02T21:03:39.803Z,98455.50
2023-05-02T21:06:07.963Z,98456.79
2023-05-02T21:08:36.996Z,98458.44
2023-05-02T21:11:13.779Z,98456.42
2023-05-02T21:13:43.284Z,98462.10
2023-05-02T21:16:19.106Z,98463.36
2023-05-02T21:18:48.175Z,98463.88
2023-05-02T21:21:16.217Z,98474.36
2023-05-02T21:23:44.361Z,98469.85
2023-05-02T21:26:12.384Z,98474.81
2023-05-02T21:28:40.414Z,98477.30
2023-05-02T21:31:08.476Z,98479.02
2023-05-02T21:33:36.778Z,98480.65
2023-05-02T21:36:04.835Z,98485.80
2023-05-02T21:38:32.825Z,98489.17
2023-05-02T21:41:05.784Z,98487.44
2023-05-02T21:43:38.350Z,98485.29
2023-05-02T21:46:06.471Z,98486.92
2023-05-02T21:48:34.429Z,98488.58
2023-05-02T21:51:09.545Z,98486.25
2023-05-02T21:53:38.012Z,98486.79
2023-05-02T21:56:07.300Z,98489.77
2023-05-02T21:58:35.327Z,98486.65
2023-05-02T22:01:03.441Z,98494.11
2023-05-02T22:03:33.949Z,98490.59
2023-05-02T22:06:06.689Z,98494.02
2023-05-02T22:08:36.370Z,98493.41
2023-05-02T22:11:09.497Z,98497.48
2023-05-02T22:13:37.558Z,98502.70
2023-05-02T22:16:07.015Z,98501.71
2023-05-02T22:18:35.225Z,98501.66
2023-05-02T22:21:03.889Z,98504.66
2023-05-02T22:23:32.069Z,98504.09
2023-05-02T22:26:06.162Z,98507.50
2023-05-02T22:28:34.043Z,98513.66
2023-05-02T22:31:01.959Z,98511.38
2023-05-02T22:33:30.033Z,98513.11
2023-05-02T22:35:58.420Z,98514.45
2023-05-02T22:38:26.364Z,98516.86
2023-05-02T22:40:54.192Z,98517.89
2023-05-02T22:43:22.108Z,98525.98
2023-05-02T22:45:51.408Z,98522.73
2023-05-02T22:48:19.480Z,98526.77
2023-05-02T22:50:48.915Z,98528.64
2023-05-02T22:53:16.980Z,98531.64
2023-05-02T22:55:44.847Z,98533.30
2023-05-02T22:58:12.826Z,98536.42
2023-05-02T23:00:40.786Z,98532.76
2023-05-02T23:03:08.805Z,98538.15
2023-05-02T23:05:36.674Z,98538.66
2023-05-02T23:08:04.778Z,98536.38
2023-05-02T23:10:32.718Z,98536.91
2023-05-02T23:13:00.724Z,98540.55
2023-05-02T23:15:28.621Z,98539.67
2023-05-02T23:17:56.567Z,98540.10
2023-05-02T23:20:24.546Z,98539.70
2023-05-02T23:22:52.669Z,98534.33
2023-05-02T23:25:21.431Z,98534.86
2023-05-02T23:27:49.291Z,98537.39
2023-05-02T23:30:17.182Z,98531.92
2023-05-02T23:32:46.034Z,98531.10
2023-05-02T23:35:13.995Z,98531.20
2023-05-02T23:37:41.977Z,98534.38
2023-05-02T23:40:10.141Z,98531.21
2023-05-02T23:42:40.539Z,98531.80
2023-05-02T23:45:09.882Z,98537.96
2023-05-02T23:47:38.447Z,98532.13
2023-05-02T23:50:07.553Z,98532.57
2023-05-02T23:52:35.441Z,98525.63
2023-05-02T23:55:04.337Z,98529.77
2023-05-02T23:57:32.213Z,98530.01
